createdAt,value
2017-12-26T00:01:56.898Z,71.30
2017-12-26T00:04:24.389Z,71.20
2017-12-26T00:06:51.912Z,71.20
2017-12-26T00:09:21.027Z,71.60
2017-12-26T00:11:48.570Z,71.90
2017-12-26T00:14:16.199Z,71.90
2017-12-26T00:16:43.690Z,72.00
2017-12-26T00:19:11.959Z,72.00
2017-12-26T00:21:40.245Z,72.00
2017-12-26T00:24:08.507Z,72.00
2017-12-26T00:26:36.006Z,72.00
2017-12-26T00:29:03.524Z,72.30
2017-12-26T00:31:31.804Z,72.30
2017-12-26T00:33:59.405Z,72.30
2017-12-26T00:36:26.878Z,72.60
2017-12-26T00:38:54.411Z,72.80
2017-12-26T00:41:22.656Z,73.20
2017-12-26T00:43:50.186Z,73.10
2017-12-26T00:46:17.684Z,73.80
2017-12-26T00:48:45.213Z,74.00
2017-12-26T00:51:12.702Z,73.40
2017-12-26T00:53:40.257Z,73.60
2017-12-26T00:56:07.749Z,73.50
2017-12-26T00:58:35.278Z,73.70
2017-12-26T01:01:02.760Z,73.60
2017-12-26T01:03:30.254Z,73.60
2017-12-26T01:05:57.805Z,73.50
2017-12-26T01:08:25.333Z,73.40
2017-12-26T01:10:53.578Z,73.40
2017-12-26T01:13:22.256Z,73.30
2017-12-26T01:15:50.527Z,74.40
2017-12-26T01:18:18.034Z,73.60
2017-12-26T01:20:45.513Z,73.80
2017-12-26T01:23:13.069Z,73.90
2017-12-26T01:25:40.572Z,73.90
2017-12-26T01:28:08.053Z,74.20
2017-12-26T01:30:36.306Z,74.50
2017-12-26T01:33:03.864Z,74.40
2017-12-26T01:35:31.385Z,74.30
2017-12-26T01:37:58.926Z,74.40
2017-12-26T01:40:27.192Z,74.10
2017-12-26T01:42:55.481Z,74.10
2017-12-26T01:45:22.994Z,74.00
2017-12-26T01:47:50.545Z,74.20
2017-12-26T01:50:18.078Z,74.10
2017-12-26T01:52:46.456Z,74.00
2017-12-26T01:55:14.735Z,74.40
2017-12-26T01:57:43.023Z,74.40
2017-12-26T02:00:11.274Z,74.50
2017-12-26T02:02:38.797Z,74.40
2017-12-26T02:05:06.297Z,74.60
2017-12-26T02:07:33.805Z,74.20
2017-12-26T02:10:01.670Z,74.50
2017-12-26T02:12:29.154Z,73.80
2017-12-26T02:14:56.653Z,74.20
2017-12-26T02:17:24.144Z,73.80
2017-12-26T02:19:52.443Z,74.00
2017-12-26T02:22:20.732Z,74.00
2017-12-26T02:24:48.307Z,74.00
2017-12-26T02:27:16.641Z,74.10
2017-12-26T02:29:44.177Z,73.80
2017-12-26T02:32:12.378Z,74.00
2017-12-26T02:34:39.888Z,74.20
2017-12-26T02:37:07.369Z,73.80
2017-12-26T02:39:34.873Z,73.80
2017-12-26T02:42:02.492Z,73.90
2017-12-26T02:44:29.995Z,73.60
2017-12-26T02:46:57.485Z,73.70
2017-12-26T02:49:25.762Z,73.50
2017-12-26T02:51:54.647Z,73.60
2017-12-26T02:54:22.183Z,73.50
2017-12-26T02:56:49.692Z,73.50
2017-12-26T02:59:17.315Z,73.40
2017-12-26T03:01:44.817Z,73.10
2017-12-26T03:04:13.233Z,73.30
2017-12-26T03:06:40.735Z,73.30
2017-12-26T03:09:08.226Z,73.10
2017-12-26T03:11:36.504Z,73.40
2017-12-26T03:14:04.760Z,73.30
2017-12-26T03:16:33.053Z,73.50
2017-12-26T03:19:01.364Z,72.90
2017-12-26T03:21:28.889Z,72.90
2017-12-26T03:23:57.417Z,72.80
2017-12-26T03:26:24.950Z,72.80
2017-12-26T03:28:53.528Z,72.80
2017-12-26T03:31:22.452Z,72.70
2017-12-26T03:33:50.721Z,73.00
2017-12-26T03:36:18.986Z,73.00
2017-12-26T03:38:46.494Z,73.00
2017-12-26T03:41:14.253Z,73.10
2017-12-26T03:43:41.810Z,72.80
2017-12-26T03:46:10.082Z,72.80
2017-12-26T03:48:38.566Z,72.70
2017-12-26T03:51:06.853Z,72.60
2017-12-26T03:53:35.182Z,72.90
2017-12-26T03:56:02.682Z,72.90
2017-12-26T03:58:31.091Z,72.70
2017-12-26T04:00:59.401Z,72.60
2017-12-26T04:03:27.042Z,72.60
2017-12-26T04:05:55.308Z,72.60
2017-12-26T04:08:23.586Z,72.80
2017-12-26T04:10:51.866Z,72.90
2017-12-26T04:13:20.432Z,73.00
2017-12-26T04:15:48.017Z,72.90
2017-12-26T04:18:16.297Z,73.00
2017-12-26T04:20:44.565Z,73.10
2017-12-26T04:23:12.827Z,72.80
2017-12-26T04:25:40.428Z,72.80
2017-12-26T04:28:09.352Z,73.10
2017-12-26T04:30:37.218Z,73.00
2017-12-26T04:33:04.725Z,72.90
2017-12-26T04:35:32.210Z,72.90
2017-12-26T04:37:59.723Z,73.10
2017-12-26T04:40:27.276Z,73.20
2017-12-26T04:42:54.928Z,72.70
2017-12-26T04:45:23.182Z,72.10
2017-12-26T04:47:50.735Z,72.10
2017-12-26T04:50:18.250Z,72.40
2017-12-26T04:52:46.084Z,72.50
2017-12-26T04:55:13.571Z,72.40
2017-12-26T04:57:41.439Z,72.80
2017-12-26T05:00:08.956Z,73.00
2017-12-26T05:02:36.460Z,72.80
2017-12-26T05:05:05.553Z,72.90
2017-12-26T05:07:33.819Z,73.00
2017-12-26T05:10:01.296Z,73.00
2017-12-26T05:12:28.828Z,72.90
2017-12-26T05:14:56.314Z,72.80
2017-12-26T05:17:23.824Z,72.60
2017-12-26T05:19:51.350Z,72.50
2017-12-26T05:22:19.645Z,72.30
2017-12-26T05:24:47.131Z,72.20
2017-12-26T05:27:14.795Z,72.40
2017-12-26T05:29:43.276Z,72.60
2017-12-26T05:32:10.789Z,72.80
2017-12-26T05:34:38.918Z,72.80
2017-12-26T05:37:06.412Z,72.80
2017-12-26T05:39:33.901Z,73.00
2017-12-26T05:42:01.826Z,73.00
2017-12-26T05:44:29.313Z,73.00
2017-12-26T05:46:56.813Z,73.10
2017-12-26T05:49:25.081Z,73.00
2017-12-26T05:51:52.581Z,73.00
2017-12-26T05:54:20.095Z,73.10
2017-12-26T05:56:47.584Z,73.40
2017-12-26T05:59:15.852Z,73.40
2017-12-26T06:01:44.133Z,73.10
2017-12-26T06:04:12.423Z,73.00
2017-12-26T06:06:40.726Z,73.00
2017-12-26T06:09:08.673Z,73.00
2017-12-26T06:11:36.946Z,72.90
2017-12-26T06:14:05.217Z,73.00
2017-12-26T06:16:34.097Z,72.90
2017-12-26T06:19:01.594Z,72.90
2017-12-26T06:21:29.867Z,73.00
2017-12-26T06:23:57.436Z,73.00
2017-12-26T06:26:25.677Z,72.90
2017-12-26T06:28:53.172Z,72.80
2017-12-26T06:31:21.752Z,72.80
2017-12-26T06:33:49.261Z,72.70
2017-12-26T06:36:16.737Z,72.50
2017-12-26T06:38:44.235Z,72.60
2017-12-26T06:41:12.527Z,72.50
2017-12-26T06:43:40.804Z,72.70
2017-12-26T06:46:09.118Z,72.60
2017-12-26T06:48:36.616Z,72.70
2017-12-26T06:51:04.172Z,72.80
2017-12-26T06:53:31.683Z,73.00
2017-12-26T06:55:59.257Z,73.00
2017-12-26T06:58:27.532Z,72.80
2017-12-26T07:00:55.820Z,72.70
2017-12-26T07:03:24.084Z,72.60
2017-12-26T07:05:52.656Z,72.50
2017-12-26T07:08:20.241Z,72.40
2017-12-26T07:10:49.691Z,72.30
2017-12-26T07:13:17.176Z,72.30
2017-12-26T07:15:44.788Z,72.20
2017-12-26T07:18:13.038Z,72.40
2017-12-26T07:20:47.072Z,72.40
2017-12-26T07:23:15.321Z,72.30
2017-12-26T07:25:42.841Z,72.30
2017-12-26T07:28:11.099Z,72.40
2017-12-26T07:30:39.961Z,72.20
2017-12-26T07:33:07.437Z,72.20
2017-12-26T07:35:35.717Z,72.20
2017-12-26T07:38:03.994Z,71.70
2017-12-26T07:40:31.484Z,71.80
2017-12-26T07:42:58.975Z,71.70
2017-12-26T07:45:26.737Z,71.60
2017-12-26T07:47:54.226Z,71.40
2017-12-26T07:50:21.801Z,71.70
2017-12-26T07:52:49.313Z,71.50
2017-12-26T07:55:17.589Z,71.30
2017-12-26T07:57:45.869Z,71.30
2017-12-26T08:00:14.138Z,71.10
2017-12-26T08:02:42.739Z,71.20
2017-12-26T08:05:10.996Z,71.20
2017-12-26T08:07:39.514Z,71.20
2017-12-26T08:10:07.353Z,71.40
2017-12-26T08:12:34.855Z,70.80
2017-12-26T08:15:02.917Z,70.90
2017-12-26T08:17:30.436Z,70.90
2017-12-26T08:19:57.937Z,71.00
2017-12-26T08:22:26.190Z,71.00
2017-12-26T08:24:53.736Z,70.90
2017-12-26T08:27:21.346Z,70.80
2017-12-26T08:29:48.992Z,70.80
2017-12-26T08:32:16.626Z,70.60
2017-12-26T08:34:44.120Z,70.60
2017-12-26T08:37:11.644Z,70.50
2017-12-26T08:39:39.148Z,70.80
2017-12-26T08:42:06.738Z,70.70
2017-12-26T08:44:35.021Z,71.00
2017-12-26T08:47:03.276Z,71.00
2017-12-26T08:49:30.807Z,71.00
2017-12-26T08:51:58.309Z,71.20
2017-12-26T08:54:26.554Z,72.00
2017-12-26T08:56:54.086Z,71.30
2017-12-26T08:59:21.631Z,71.30
2017-12-26T09:01:49.173Z,71.50
2017-12-26T09:04:17.253Z,71.40
2017-12-26T09:06:44.823Z,71.50
2017-12-26T09:09:13.104Z,72.10
2017-12-26T09:11:41.392Z,71.40
2017-12-26T09:14:09.711Z,71.40
2017-12-26T09:16:37.285Z,71.40
2017-12-26T09:19:04.768Z,71.50
2017-12-26T09:21:32.269Z,71.30
2017-12-26T09:24:00.570Z,70.80
2017-12-26T09:26:28.080Z,70.80
2017-12-26T09:28:55.569Z,70.70
2017-12-26T09:31:23.839Z,70.60
2017-12-26T09:33:51.419Z,70.10
2017-12-26T09:36:19.718Z,69.70
2017-12-26T09:38:48.009Z,69.20
2017-12-26T09:41:15.558Z,69.20
2017-12-26T09:43:43.100Z,69.10
2017-12-26T09:46:10.585Z,69.20
2017-12-26T09:48:38.071Z,69.10
2017-12-26T09:51:05.595Z,69.00
2017-12-26T09:53:33.930Z,68.80
2017-12-26T09:56:01.441Z,68.70
2017-12-26T09:58:29.696Z,68.50
2017-12-26T10:00:58.715Z,68.40
2017-12-26T10:03:26.225Z,68.30
2017-12-26T10:05:53.705Z,68.10
2017-12-26T10:08:21.182Z,67.80
2017-12-26T10:10:49.660Z,67.00
2017-12-26T10:13:17.153Z,67.00
2017-12-26T10:15:45.472Z,66.70
2017-12-26T10:18:13.056Z,66.70
2017-12-26T10:20:40.555Z,66.50
2017-12-26T10:23:08.063Z,66.10
2017-12-26T10:25:35.570Z,65.40
2017-12-26T10:28:03.329Z,65.20
2017-12-26T10:30:30.828Z,65.10
2017-12-26T10:32:58.370Z,65.00
2017-12-26T10:35:25.859Z,64.30
2017-12-26T10:37:54.139Z,63.60
2017-12-26T10:40:22.781Z,63.10
2017-12-26T10:42:50.282Z,63.10
2017-12-26T10:45:18.612Z,62.80
2017-12-26T10:47:46.114Z,62.70
2017-12-26T10:50:13.729Z,62.60
2017-12-26T10:52:41.293Z,62.60
2017-12-26T10:55:08.797Z,62.20
2017-12-26T10:57:36.295Z,61.90
2017-12-26T11:00:03.794Z,62.00
2017-12-26T11:02:31.668Z,61.80
2017-12-26T11:04:59.889Z,61.50
2017-12-26T11:07:27.461Z,61.50
2017-12-26T11:09:55.732Z,61.40
2017-12-26T11:12:23.224Z,61.40
2017-12-26T11:14:51.501Z,61.40
2017-12-26T11:17:19.029Z,61.30
2017-12-26T11:19:46.565Z,61.10
2017-12-26T11:22:14.046Z,61.20
2017-12-26T11:24:41.709Z,61.00
2017-12-26T11:27:09.193Z,60.80
2017-12-26T11:29:38.196Z,60.90
2017-12-26T11:32:05.689Z,60.90
2017-12-26T11:34:33.214Z,60.90
2017-12-26T11:37:00.690Z,61.40
2017-12-26T11:39:28.968Z,60.90
2017-12-26T11:41:57.829Z,61.20
2017-12-26T11:44:25.318Z,60.50
2017-12-26T11:46:53.560Z,60.20
2017-12-26T11:49:21.197Z,60.20
2017-12-26T11:51:49.289Z,60.40
2017-12-26T11:54:16.817Z,60.30
2017-12-26T11:56:45.308Z,60.10
2017-12-26T11:59:13.573Z,60.00
2017-12-26T12:01:41.975Z,60.00
2017-12-26T12:04:10.260Z,59.60
2017-12-26T12:06:38.519Z,59.60
2017-12-26T12:09:06.788Z,59.60
2017-12-26T12:11:34.423Z,59.60
2017-12-26T12:14:01.935Z,59.80
2017-12-26T12:16:30.309Z,59.90
2017-12-26T12:18:57.823Z,59.90
2017-12-26T12:21:26.087Z,59.60
2017-12-26T12:23:53.626Z,59.80
2017-12-26T12:26:21.878Z,59.30
2017-12-26T12:28:50.173Z,59.30
2017-12-26T12:31:17.774Z,59.30
2017-12-26T12:33:46.042Z,59.20
2017-12-26T12:36:14.315Z,59.20
2017-12-26T12:38:42.635Z,59.30
2017-12-26T12:41:10.144Z,59.30
2017-12-26T12:43:38.173Z,59.20
2017-12-26T12:46:05.896Z,59.30
2017-12-26T12:48:34.165Z,59.20
2017-12-26T12:51:01.658Z,59.20
2017-12-26T12:53:29.905Z,59.20
2017-12-26T12:55:58.182Z,59.30
2017-12-26T12:58:25.691Z,59.30
2017-12-26T13:00:53.214Z,59.50
2017-12-26T13:03:22.278Z,59.30
2017-12-26T13:05:49.814Z,59.40
2017-12-26T13:08:17.311Z,59.70
2017-12-26T13:10:44.858Z,59.80
2017-12-26T13:13:12.369Z,59.90
2017-12-26T13:15:39.958Z,60.10
2017-12-26T13:18:09.043Z,59.80
2017-12-26T13:20:36.544Z,59.80
2017-12-26T13:23:04.114Z,59.90
2017-12-26T13:25:31.649Z,59.70
2017-12-26T13:27:59.910Z,59.30
2017-12-26T13:30:27.396Z,59.30
2017-12-26T13:32:54.984Z,58.70
2017-12-26T13:35:22.504Z,58.20
2017-12-26T13:37:50.740Z,58.20
2017-12-26T13:40:18.251Z,58.20
2017-12-26T13:42:46.776Z,58.20
2017-12-26T13:45:14.337Z,58.10
2017-12-26T13:47:41.997Z,58.20
2017-12-26T13:50:09.750Z,58.20
2017-12-26T13:52:37.856Z,58.30
2017-12-26T13:55:05.385Z,58.40
2017-12-26T13:57:33.730Z,59.10
2017-12-26T14:00:01.404Z,59.10
2017-12-26T14:02:28.935Z,61.40
2017-12-26T14:04:56.468Z,64.70
2017-12-26T14:07:24.726Z,68.30
2017-12-26T14:09:52.949Z,68.30
2017-12-26T14:12:20.450Z,69.20
2017-12-26T14:14:48.697Z,69.10
2017-12-26T14:17:16.182Z,69.70
2017-12-26T14:19:43.668Z,70.00
2017-12-26T14:22:11.174Z,70.60
2017-12-26T14:24:38.720Z,71.00
2017-12-26T14:27:07.859Z,71.30
2017-12-26T14:29:35.414Z,71.20
2017-12-26T14:32:02.932Z,71.00
2017-12-26T14:34:30.415Z,71.50
2017-12-26T14:36:58.665Z,70.70
2017-12-26T14:39:26.196Z,70.70
2017-12-26T14:41:53.690Z,69.60
2017-12-26T14:44:21.985Z,70.00
2017-12-26T14:46:50.260Z,70.20
2017-12-26T14:49:18.441Z,70.10
2017-12-26T14:51:45.968Z,70.00
2017-12-26T14:54:14.024Z,69.70
2017-12-26T14:56:41.542Z,69.90
2017-12-26T14:59:09.021Z,70.00
2017-12-26T15:01:37.304Z,70.00
2017-12-26T15:04:05.582Z,70.00
2017-12-26T15:06:33.862Z,70.40
2017-12-26T15:09:02.105Z,70.80
2017-12-26T15:11:29.596Z,70.80
2017-12-26T15:13:57.121Z,71.30
2017-12-26T15:16:24.645Z,70.50
2017-12-26T15:18:52.146Z,70.40
2017-12-26T15:21:19.676Z,70.70
2017-12-26T15:23:47.975Z,70.60
2017-12-26T15:26:16.217Z,70.80
2017-12-26T15:28:44.489Z,70.30
2017-12-26T15:31:11.983Z,70.30
2017-12-26T15:33:39.489Z,70.90
2017-12-26T15:36:06.956Z,70.60
2017-12-26T15:38:34.526Z,71.70
2017-12-26T15:41:02.009Z,70.90
2017-12-26T15:43:30.264Z,70.80
2017-12-26T15:45:57.755Z,70.80
2017-12-26T15:48:26.038Z,71.30
2017-12-26T15:50:54.311Z,71.20
2017-12-26T15:53:21.865Z,71.20
2017-12-26T15:55:49.469Z,71.50
2017-12-26T15:58:17.082Z,72.40
2017-12-26T16:00:44.585Z,71.80
2017-12-26T16:03:12.871Z,71.60
2017-12-26T16:05:40.432Z,71.60
2017-12-26T16:08:08.012Z,71.40
2017-12-26T16:10:35.502Z,70.90
2017-12-26T16:13:03.030Z,70.70
2017-12-26T16:15:31.292Z,70.90
2017-12-26T16:17:59.656Z,70.70
2017-12-26T16:20:27.158Z,70.80
2017-12-26T16:22:55.427Z,70.70
2017-12-26T16:25:23.693Z,70.60
2017-12-26T16:27:51.968Z,70.70
2017-12-26T16:30:20.249Z,70.70
2017-12-26T16:32:48.566Z,70.80
2017-12-26T16:35:16.091Z,70.80
2017-12-26T16:37:43.694Z,71.00
2017-12-26T16:40:11.256Z,70.60
2017-12-26T16:42:38.753Z,70.60
2017-12-26T16:45:06.241Z,70.10
2017-12-26T16:47:34.161Z,70.10
2017-12-26T16:50:02.437Z,68.40
2017-12-26T16:52:29.988Z,68.00
2017-12-26T16:54:58.261Z,67.70
2017-12-26T16:57:26.529Z,67.10
2017-12-26T16:59:55.053Z,66.70
2017-12-26T17:02:22.537Z,66.70
2017-12-26T17:04:50.055Z,66.20
2017-12-26T17:07:18.324Z,65.00
2017-12-26T17:09:46.570Z,64.60
2017-12-26T17:12:14.056Z,64.50
2017-12-26T17:14:41.643Z,63.40
2017-12-26T17:17:09.916Z,64.20
2017-12-26T17:19:38.167Z,64.00
2017-12-26T17:22:05.672Z,64.20
2017-12-26T17:24:33.922Z,62.10
2017-12-26T17:27:01.431Z,62.10
2017-12-26T17:29:30.195Z,62.00
2017-12-26T17:31:58.436Z,62.20
2017-12-26T17:34:25.937Z,62.00
2017-12-26T17:36:54.186Z,62.40
2017-12-26T17:39:21.668Z,62.30
2017-12-26T17:41:49.284Z,62.90
2017-12-26T17:44:17.585Z,62.90
2017-12-26T17:46:45.073Z,63.30
2017-12-26T17:49:12.591Z,63.50
2017-12-26T17:51:40.085Z,63.30
2017-12-26T17:54:07.555Z,63.60
2017-12-26T17:56:35.052Z,63.30
2017-12-26T17:59:03.296Z,63.70
2017-12-26T18:01:30.918Z,63.80
2017-12-26T18:03:58.436Z,63.30
2017-12-26T18:06:26.133Z,63.50
2017-12-26T18:11:30.263Z,63.60
2017-12-26T18:13:58.541Z,64.30
2017-12-26T18:16:26.050Z,64.30
2017-12-26T18:18:53.536Z,63.80
2017-12-26T18:21:21.064Z,64.10
2017-12-26T18:23:48.593Z,63.90
2017-12-26T18:26:16.058Z,63.90
2017-12-26T18:31:17.075Z,64.40
2017-12-26T18:33:44.560Z,64.50
2017-12-26T18:36:12.045Z,64.50
2017-12-26T18:38:40.330Z,64.30
2017-12-26T18:41:08.608Z,64.10
2017-12-26T18:43:36.864Z,63.40
2017-12-26T18:46:04.372Z,63.40
2017-12-26T18:48:32.035Z,63.30
2017-12-26T18:50:59.654Z,63.40
2017-12-26T18:53:27.203Z,63.70
2017-12-26T18:55:54.806Z,64.10
2017-12-26T18:58:22.337Z,63.90
2017-12-26T19:00:49.868Z,64.30
2017-12-26T19:03:17.483Z,64.50
2017-12-26T19:05:45.078Z,64.70
2017-12-26T19:08:13.198Z,64.70
2017-12-26T19:10:40.707Z,64.30
2017-12-26T19:13:09.019Z,63.90
2017-12-26T19:15:36.891Z,63.90
2017-12-26T19:18:04.425Z,64.20
2017-12-26T19:20:32.716Z,64.80
2017-12-26T19:23:00.256Z,64.70
2017-12-26T19:25:28.593Z,65.90
2017-12-26T19:27:56.052Z,65.40
2017-12-26T19:30:23.568Z,65.80
2017-12-26T19:32:51.859Z,66.20
2017-12-26T19:35:20.257Z,66.40
2017-12-26T19:37:47.925Z,66.30
2017-12-26T19:40:16.193Z,66.60
2017-12-26T19:42:43.756Z,66.50
2017-12-26T19:45:11.347Z,66.40
2017-12-26T19:47:38.912Z,66.80
2017-12-26T19:50:06.416Z,67.50
2017-12-26T19:52:33.926Z,67.50
2017-12-26T19:55:01.410Z,68.00
2017-12-26T19:57:28.924Z,68.10
2017-12-26T19:59:57.224Z,69.00
2017-12-26T20:02:24.815Z,68.90
2017-12-26T20:04:52.331Z,69.00
2017-12-26T20:07:22.592Z,69.20
2017-12-26T20:09:50.132Z,69.30
2017-12-26T20:12:18.488Z,69.40
2017-12-26T20:14:45.964Z,69.30
2017-12-26T20:17:14.556Z,69.30
2017-12-26T20:19:42.226Z,69.30
2017-12-26T20:22:10.481Z,69.10
2017-12-26T20:24:38.088Z,69.00
2017-12-26T20:27:06.367Z,69.60
2017-12-26T20:29:34.982Z,70.00
2017-12-26T20:32:02.824Z,70.00
2017-12-26T20:34:30.925Z,70.00
2017-12-26T20:36:58.396Z,70.00
2017-12-26T20:39:25.936Z,69.80
2017-12-26T20:41:54.123Z,70.00
2017-12-26T20:44:22.874Z,70.70
2017-12-26T20:46:50.369Z,70.50
2017-12-26T20:49:17.921Z,70.50
2017-12-26T20:51:46.197Z,71.30
2017-12-26T20:54:14.470Z,71.30
2017-12-26T20:56:42.780Z,71.00
2017-12-26T20:59:10.256Z,71.40
2017-12-26T21:01:37.808Z,71.70
2017-12-26T21:04:05.300Z,71.50
2017-12-26T21:06:32.801Z,71.80
2017-12-26T21:09:01.906Z,72.50
2017-12-26T21:11:30.138Z,72.00
2017-12-26T21:13:57.678Z,72.00
2017-12-26T21:16:25.172Z,71.90
2017-12-26T21:18:52.688Z,71.40
2017-12-26T21:21:21.663Z,71.60
2017-12-26T21:23:50.688Z,71.50
2017-12-26T21:26:18.224Z,71.50
2017-12-26T21:28:46.204Z,71.70
2017-12-26T21:31:14.477Z,72.50
2017-12-26T21:33:41.957Z,72.50
2017-12-26T21:36:10.215Z,72.80
2017-12-26T21:38:37.718Z,72.80
2017-12-26T21:41:05.273Z,72.80
2017-12-26T21:43:33.173Z,72.90
2017-12-26T21:46:00.704Z,72.90
2017-12-26T21:48:28.946Z,72.90
2017-12-26T21:50:56.552Z,72.80
2017-12-26T21:53:24.990Z,73.00
2017-12-26T21:55:52.597Z,73.00
2017-12-26T21:58:21.047Z,72.80
2017-12-26T22:00:49.676Z,72.80
2017-12-26T22:03:17.226Z,72.50
2017-12-26T22:05:45.485Z,72.80
2017-12-26T22:08:13.082Z,73.00
2017-12-26T22:10:40.644Z,72.70
2017-12-26T22:13:09.947Z,72.80
2017-12-26T22:15:37.520Z,72.70
2017-12-26T22:18:05.559Z,73.30
2017-12-26T22:20:33.186Z,73.40
2017-12-26T22:23:00.777Z,73.20
2017-12-26T22:25:28.325Z,73.20
2017-12-26T22:27:55.898Z,73.40
2017-12-26T22:30:23.606Z,73.40
2017-12-26T22:32:51.916Z,73.50
2017-12-26T22:35:20.642Z,73.40
2017-12-26T22:37:48.127Z,73.40
2017-12-26T22:40:16.426Z,73.40
2017-12-26T22:42:44.669Z,74.30
2017-12-26T22:45:12.180Z,73.50
2017-12-26T22:47:40.634Z,73.50
2017-12-26T22:50:11.776Z,73.50
2017-12-26T22:52:39.529Z,73.90
2017-12-26T22:55:07.087Z,73.80
2017-12-26T22:57:35.431Z,73.80
2017-12-26T23:00:03.065Z,73.60
2017-12-26T23:02:32.467Z,73.80
2017-12-26T23:04:59.995Z,73.90
2017-12-26T23:07:27.480Z,73.70
2017-12-26T23:09:55.148Z,73.50
2017-12-26T23:12:22.689Z,73.30
2017-12-26T23:14:56.773Z,73.10
2017-12-26T23:17:30.873Z,73.20
2017-12-26T23:20:04.761Z,73.30
2017-12-26T23:22:33.268Z,73.20
2017-12-26T23:25:06.445Z,73.50
2017-12-26T23:27:40.520Z,73.50
2017-12-26T23:30:13.832Z,73.80
2017-12-26T23:32:48.273Z,73.70
2017-12-26T23:35:22.195Z,73.30
2017-12-26T23:37:56.801Z,73.50
2017-12-26T23:40:30.725Z,73.30
2017-12-26T23:43:04.491Z,73.00
2017-12-26T23:45:37.778Z,72.90
2017-12-26T23:48:10.902Z,72.90
2017-12-26T23:50:44.138Z,73.20
2017-12-26T23:53:17.497Z,73.60
2017-12-26T23:55:50.853Z,73.20
2017-12-26T23:58:24.147Z,72.70
